Time;durP1;ratioP1;P1;durP2;ratioP2;P2;SDS_P1;SDS_P2;PMS_P1;PMS_P2;Temp;Humidity;BMP_temperature;BMP_pressure;BME280_temperature;BME280_humidity;BME280_pressure;Samples;Min_cycle;Max_cycle;Signal;HPM_P1;HPM_P2
2023/01/31 00:01:14;;;;;;;10.57;3.05;;;;;;;1.75;100.00;102401.41;5029453;28;20083;-65
2023/01/31 00:03:40;;;;;;;13.70;3.55;;;;;;;1.71;100.00;102399.94;5029409;28;20025;-65
2023/01/31 00:06:17;;;;;;;17.35;5.22;;;;;;;1.66;100.00;102400.25;5029852;28;20026;-64
2023/01/31 00:08:43;;;;;;;11.40;3.40;;;;;;;1.60;100.00;102395.38;5029321;28;20029;-65
2023/01/31 00:11:09;;;;;;;12.82;3.67;;;;;;;1.57;100.00;102399.97;5011594;28;20033;-65
2023/01/31 00:13:35;;;;;;;20.35;6.30;;;;;;;1.53;100.00;102410.69;5029252;28;20033;-65
2023/01/31 00:16:01;;;;;;;21.60;4.00;;;;;;;1.51;100.00;102414.38;5029208;28;20659;-65
2023/01/31 00:18:26;;;;;;;13.43;3.78;;;;;;;1.47;100.00;102412.91;5029148;28;20037;-65
2023/01/31 00:20:51;;;;;;;14.18;3.20;;;;;;;1.45;100.00;102409.53;5029321;28;20064;-64
2023/01/31 00:23:17;;;;;;;11.32;3.72;;;;;;;1.46;100.00;102413.81;5029228;28;20121;-64
2023/01/31 00:25:42;;;;;;;16.20;4.25;;;;;;;1.40;100.00;102411.59;5029027;28;20017;-64
2023/01/31 00:28:07;;;;;;;24.73;4.53;;;;;;;1.38;100.00;102421.38;5011513;28;20437;-64
2023/01/31 00:30:33;;;;;;;15.40;4.05;;;;;;;1.33;100.00;102420.81;5029166;28;20428;-64
2023/01/31 00:32:59;;;;;;;6.40;3.08;;;;;;;1.28;100.00;102427.22;5029140;28;20037;-64
2023/01/31 00:35:24;;;;;;;10.20;2.60;;;;;;;1.24;100.00;102417.00;5028914;28;20030;-64
2023/01/31 00:37:50;;;;;;;14.52;3.60;;;;;;;1.21;100.00;102423.28;5029604;28;20036;-64
2023/01/31 00:40:15;;;;;;;13.02;4.05;;;;;;;1.08;100.00;102404.81;5032978;28;20139;-65
2023/01/31 00:42:42;;;;;;;9.88;3.20;;;;;;;1.13;100.00;102422.06;5032980;28;20071;-64
2023/01/31 00:45:08;;;;;;;12.77;4.72;;;;;;;1.07;100.00;102407.53;5032832;28;20037;-65
2023/01/31 00:47:33;;;;;;;16.77;5.88;;;;;;;1.05;100.00;102406.81;5032819;28;20032;-64
2023/01/31 00:49:59;;;;;;;15.82;3.42;;;;;;;1.00;100.00;102404.47;5032831;28;20102;-64
2023/01/31 00:52:24;;;;;;;12.00;3.45;;;;;;;0.97;100.00;102403.78;5032691;28;20037;-65
2023/01/31 00:54:50;;;;;;;12.60;4.13;;;;;;;0.92;100.00;102406.72;5032911;28;20104;-65
2023/01/31 00:57:15;;;;;;;12.65;4.47;;;;;;;0.90;100.00;102408.59;5014899;28;20029;-64
2023/01/31 00:59:40;;;;;;;14.30;5.53;;;;;;;0.86;100.00;102407.94;5032724;28;20440;-64
2023/01/31 01:02:06;;;;;;;13.98;4.15;;;;;;;0.84;100.00;102406.34;5032647;28;20052;-64
2023/01/31 01:04:31;;;;;;;6.07;3.13;;;;;;;0.83;100.00;102404.66;5032669;28;20059;-65
2023/01/31 01:06:56;;;;;;;11.75;5.15;;;;;;;0.83;100.00;102402.03;5032555;28;20025;-64
2023/01/31 01:09:22;;;;;;;16.88;5.72;;;;;;;0.84;100.00;102399.31;5032524;28;20079;-65
2023/01/31 01:11:48;;;;;;;15.90;3.30;;;;;;;0.89;100.00;102393.75;5032386;28;20060;-65
2023/01/31 01:14:14;;;;;;;17.60;4.07;;;;;;;0.95;100.00;102395.19;5032253;28;20542;-65
2023/01/31 01:16:40;;;;;;;13.73;5.60;;;;;;;0.99;100.00;102386.16;5032276;28;20076;-65
2023/01/31 01:19:11;;;;;;;12.50;3.80;;;;;;;1.03;100.00;102369.28;5032613;28;20021;-65
2023/01/31 01:21:37;;;;;;;19.00;4.50;;;;;;;1.07;100.00;102369.00;5031715;28;20105;-64
2023/01/31 01:24:04;;;;;;;14.57;3.88;;;;;;;1.11;100.00;102374.03;5032127;28;20033;-64
2023/01/31 01:26:32;;;;;;;13.23;3.47;;;;;;;1.12;100.00;102367.84;5031894;28;20441;-65
2023/01/31 01:28:59;;;;;;;14.10;2.92;;;;;;;1.11;100.00;102369.63;5032342;28;20036;-64
2023/01/31 01:31:28;;;;;;;13.25;3.85;;;;;;;1.11;100.00;102360.91;5032052;28;20100;-65
2023/01/31 01:33:59;;;;;;;21.40;4.95;;;;;;;1.14;100.00;102355.44;5031941;28;20116;-64
2023/01/31 01:36:24;;;;;;;17.80;4.60;;;;;;;1.16;100.00;102361.47;5031779;28;20033;-64
2023/01/31 01:38:50;;;;;;;10.55;3.85;;;;;;;1.18;100.00;102355.16;5032217;28;20037;-65
2023/01/31 01:41:16;;;;;;;12.70;5.68;;;;;;;1.20;100.00;102362.94;5031621;28;20037;-65
2023/01/31 01:43:46;;;;;;;18.40;6.03;;;;;;;1.22;100.00;102369.78;5031597;28;20058;-65
2023/01/31 01:46:16;;;;;;;14.00;4.47;;;;;;;1.23;100.00;102357.47;5031731;28;20256;-65
2023/01/31 01:48:44;;;;;;;13.27;4.88;;;;;;;1.24;100.00;102362.63;5031711;28;20029;-65
2023/01/31 01:51:13;;;;;;;11.15;4.57;;;;;;;1.25;100.00;102358.22;5030742;28;20041;-64
2023/01/31 01:53:42;;;;;;;9.60;3.67;;;;;;;1.26;100.00;102354.66;5031703;28;20477;-65
2023/01/31 01:56:15;;;;;;;13.68;4.82;;;;;;;1.23;100.00;102353.09;5031562;28;20594;-64
2023/01/31 01:58:48;;;;;;;8.20;3.28;;;;;;;1.19;100.00;102353.38;5031578;28;20028;-65
2023/01/31 02:01:15;;;;;;;13.70;3.65;;;;;;;1.16;100.00;102359.66;5031322;28;20028;-65
2023/01/31 02:03:44;;;;;;;15.93;4.10;;;;;;;1.11;100.00;102347.75;5031546;28;20040;-64
2023/01/31 02:06:10;;;;;;;10.70;4.22;;;;;;;1.10;100.00;102344.28;5031379;28;20018;-65
2023/01/31 02:08:38;;;;;;;18.33;5.30;;;;;;;1.14;100.00;102355.44;5013535;28;20047;-65
2023/01/31 02:11:26;;;;;;;14.73;4.10;;;;;;;1.14;100.00;102361.53;5031292;28;20123;-65
2023/01/31 02:13:58;;;;;;;17.13;4.88;;;;;;;1.17;100.00;102368.38;5017980;28;20127;-65
2023/01/31 02:16:24;;;;;;;13.98;6.85;;;;;;;1.24;100.00;102369.69;5031060;28;20420;-64
2023/01/31 02:18:50;;;;;;;16.77;5.22;;;;;;;1.31;100.00;102371.81;5031307;28;20036;-65
2023/01/31 02:21:33;;;;;;;16.48;5.05;;;;;;;1.38;100.00;102369.63;5031065;28;20072;-65
2023/01/31 02:24:17;;;;;;;15.13;4.82;;;;;;;1.45;100.00;102370.94;5030927;28;20032;-65
2023/01/31 02:27:19;;;;;;;15.73;7.47;;;;;;;1.47;100.00;102379.56;5030979;28;20060;-65
2023/01/31 02:30:09;;;;;;;17.77;5.13;;;;;;;1.47;100.00;102374.31;4992597;28;20061;-65
2023/01/31 02:32:43;;;;;;;15.07;5.28;;;;;;;1.54;100.00;102380.81;5030910;28;20033;-64
2023/01/31 02:35:12;;;;;;;15.80;5.90;;;;;;;1.59;100.00;102388.41;5030970;28;20551;-65
2023/01/31 02:38:23;;;;;;;32.17;8.18;;;;;;;1.64;100.00;102386.34;5030692;28;20077;-65
2023/01/31 02:41:13;;;;;;;20.52;5.97;;;;;;;1.71;100.00;102382.38;5024849;28;20045;-65
2023/01/31 02:46:59;;;;;;;20.63;6.97;;;;;;;1.83;100.00;102366.72;5030924;28;20117;-64
2023/01/31 02:49:38;;;;;;;51.35;9.15;;;;;;;1.87;100.00;102362.94;5030547;28;20087;-65
2023/01/31 02:52:19;;;;;;;24.30;6.72;;;;;;;1.87;100.00;102353.25;5030427;28;20036;-64
2023/01/31 02:58:08;;;;;;;21.65;6.90;;;;;;;1.94;100.00;102351.91;5011385;28;20340;-64
2023/01/31 03:00:37;;;;;;;19.35;7.55;;;;;;;2.03;100.00;102355.69;5030278;28;20048;-65
2023/01/31 03:03:12;;;;;;;20.90;6.45;;;;;;;2.07;100.00;102345.78;5030293;28;20025;-65
2023/01/31 03:05:37;;;;;;;23.00;6.50;;;;;;;2.10;100.00;102356.13;5030272;28;20025;-65
2023/01/31 03:08:05;;;;;;;22.05;6.28;;;;;;;2.15;100.00;102360.13;5029957;28;20042;-65
2023/01/31 03:10:42;;;;;;;22.20;6.90;;;;;;;2.20;100.00;102344.00;5030168;28;20049;-65
2023/01/31 03:13:43;;;;;;;20.45;7.15;;;;;;;2.23;100.00;102342.97;5030431;28;20717;-65
2023/01/31 03:19:27;;;;;;;23.63;8.20;;;;;;;2.25;100.00;102339.28;5029971;28;20459;-65
2023/01/31 03:22:02;;;;;;;21.15;6.53;;;;;;;2.27;100.00;102341.81;5030070;28;20056;-64
2023/01/31 03:24:29;;;;;;;21.65;8.02;;;;;;;2.28;100.00;102336.47;5029681;28;20028;-64
2023/01/31 03:26:57;;;;;;;27.13;8.93;;;;;;;2.32;100.00;102339.72;5029941;28;20040;-65
2023/01/31 03:29:25;;;;;;;15.40;8.27;;;;;;;2.34;100.00;102340.44;5029878;28;20496;-65
2023/01/31 03:32:02;;;;;;;18.63;7.68;;;;;;;2.36;100.00;102335.94;5029618;28;20037;-65
2023/01/31 03:34:27;;;;;;;20.88;8.38;;;;;;;2.38;100.00;102324.34;5029699;28;20025;-65
2023/01/31 03:37:25;;;;;;;25.73;9.57;;;;;;;2.42;100.00;102322.31;5029684;28;20032;-65
2023/01/31 03:40:04;;;;;;;21.30;6.97;;;;;;;2.44;100.00;102325.69;4995617;28;20048;-65
2023/01/31 03:42:36;;;;;;;23.15;8.40;;;;;;;2.46;100.00;102315.88;5029804;28;20041;-65
2023/01/31 03:45:04;;;;;;;;;;;;;;;2.48;100.00;102321.06;5030101;28;20045;-65
2023/01/31 03:47:43;;;;;;;20.65;8.63;;;;;;;2.49;100.00;102318.31;5029829;28;19936;-65
2023/01/31 03:50:13;;;;;;;21.48;7.85;;;;;;;2.49;100.00;102313.06;5029269;28;20030;-65
2023/01/31 03:53:01;;;;;;;25.83;9.88;;;;;;;2.49;100.00;102312.19;5029507;28;20021;-65
2023/01/31 03:55:33;;;;;;;22.52;11.00;;;;;;;2.49;100.00;102307.78;5028909;28;20044;-65
2023/01/31 03:58:02;;;;;;;28.77;10.07;;;;;;;2.50;100.00;102293.66;5029626;28;20483;-65
2023/01/31 04:00:28;;;;;;;33.63;9.77;;;;;;;2.48;100.00;102305.25;5029435;28;20033;-64
2023/01/31 04:03:05;;;;;;;25.10;9.55;;;;;;;2.52;100.00;102306.75;5029425;28;20025;-65
2023/01/31 04:05:31;;;;;;;20.35;8.40;;;;;;;2.54;100.00;102294.28;5029483;28;20087;-65
2023/01/31 04:08:00;;;;;;;19.65;9.63;;;;;;;2.57;100.00;102294.09;5029257;28;20699;-65
2023/01/31 04:10:25;;;;;;;23.02;10.98;;;;;;;2.59;100.00;102290.41;5029253;28;20183;-65
2023/01/31 04:12:52;;;;;;;20.30;9.18;;;;;;;2.62;100.00;102291.97;5031788;28;20540;-65
2023/01/31 04:15:18;;;;;;;24.50;10.52;;;;;;;2.64;100.00;102300.59;5035878;28;20574;-65
2023/01/31 04:17:43;;;;;;;23.77;10.18;;;;;;;2.67;100.00;102304.78;5035856;28;20037;-65
2023/01/31 04:20:09;;;;;;;28.88;11.63;;;;;;;2.68;100.00;102302.06;5035818;28;20430;-65
2023/01/31 04:22:35;;;;;;;22.90;8.80;;;;;;;2.66;100.00;102298.69;5035497;28;20044;-65
2023/01/31 04:25:00;;;;;;;25.75;9.45;;;;;;;2.65;100.00;102299.66;5035506;28;20017;-65
2023/01/31 04:27:26;;;;;;;24.08;8.68;;;;;;;2.65;100.00;102302.28;5035803;28;20409;-65
2023/01/31 04:29:52;;;;;;;27.67;10.80;;;;;;;2.57;100.00;102292.28;5035677;28;20072;-65
2023/01/31 04:32:17;;;;;;;24.13;9.10;;;;;;;2.55;100.00;102291.56;5035797;28;20029;-65
2023/01/31 04:34:42;;;;;;;27.75;10.90;;;;;;;2.51;100.00;102287.44;5035679;28;20431;-65
2023/01/31 04:37:08;;;;;;;21.40;9.90;;;;;;;2.45;100.00;102287.03;5035635;28;20044;-65
2023/01/31 04:39:33;;;;;;;23.33;12.38;;;;;;;2.40;100.00;102288.19;5035029;28;20498;-65
2023/01/31 04:41:59;;;;;;;20.88;9.88;;;;;;;2.36;100.00;102293.81;5035874;28;20083;-65
2023/01/31 04:44:24;;;;;;;26.55;10.38;;;;;;;2.32;100.00;102292.31;5035439;28;20045;-65
2023/01/31 04:46:49;;;;;;;25.52;10.35;;;;;;;2.28;100.00;102288.22;5035613;28;20030;-65
2023/01/31 04:49:15;;;;;;;37.22;13.30;;;;;;;2.27;100.00;102287.38;5035545;28;20056;-65
2023/01/31 04:51:40;;;;;;;20.65;11.25;;;;;;;2.25;100.00;102281.38;5035575;28;20040;-70
2023/01/31 04:54:06;;;;;;;21.20;8.48;;;;;;;2.23;100.00;102282.41;5035469;28;20116;-69
2023/01/31 04:56:31;;;;;;;28.70;10.18;;;;;;;2.17;100.00;102279.28;5035386;28;20076;-69
2023/01/31 04:58:57;;;;;;;21.80;8.88;;;;;;;2.13;100.00;102272.56;5035590;28;20033;-69
2023/01/31 05:01:23;;;;;;;22.20;9.88;;;;;;;2.09;100.00;102259.69;5035558;28;20108;-69
2023/01/31 05:03:49;;;;;;;29.48;10.75;;;;;;;2.05;100.00;102264.34;5035725;28;20029;-69
2023/01/31 05:06:14;;;;;;;25.75;11.00;;;;;;;1.99;100.00;102267.38;5035546;28;20034;-69
2023/01/31 05:08:40;;;;;;;26.33;8.70;;;;;;;1.97;100.00;102262.25;5035293;28;20477;-69
2023/01/31 05:11:06;;;;;;;25.20;10.05;;;;;;;1.94;100.00;102265.09;5035483;28;20715;-69
2023/01/31 05:13:32;;;;;;;22.20;11.38;;;;;;;1.91;100.00;102264.44;5035240;28;20029;-69
2023/01/31 05:15:58;;;;;;;22.02;9.02;;;;;;;1.90;100.00;102266.22;5035264;28;20021;-69
2023/01/31 05:18:24;;;;;;;26.10;9.80;;;;;;;1.94;100.00;102259.00;5035365;28;20048;-69
2023/01/31 05:20:50;;;;;;;20.70;9.88;;;;;;;2.01;100.00;102268.13;5035364;28;20041;-70
2023/01/31 05:23:17;;;;;;;21.50;9.05;;;;;;;2.05;100.00;102253.81;5035190;28;20033;-69
2023/01/31 05:25:43;;;;;;;25.52;11.02;;;;;;;2.10;100.00;102243.81;5032268;28;20030;-69
2023/01/31 05:28:09;;;;;;;20.48;9.90;;;;;;;2.14;100.00;102247.91;5032070;28;20039;-69
2023/01/31 05:30:35;;;;;;;29.83;10.95;;;;;;;2.15;100.00;102244.34;5032013;28;20030;-69
2023/01/31 05:33:01;;;;;;;30.30;11.27;;;;;;;2.18;100.00;102249.38;5031851;28;20087;-69
2023/01/31 05:35:26;;;;;;;30.27;13.60;;;;;;;2.20;100.00;102246.63;5032000;28;20448;-69
2023/01/31 05:37:53;;;;;;;23.95;9.35;;;;;;;2.23;100.00;102243.81;5031964;28;21365;-69
2023/01/31 05:40:18;;;;;;;20.27;8.55;;;;;;;2.24;100.00;102234.13;5032031;28;20481;-70
2023/01/31 05:42:44;;;;;;;24.90;9.68;;;;;;;2.27;100.00;102229.47;5032149;28;20083;-69
2023/01/31 05:45:10;;;;;;;32.47;9.48;;;;;;;2.30;100.00;102231.03;5031769;28;20072;-65
2023/01/31 05:47:36;;;;;;;23.60;11.18;;;;;;;2.33;100.00;102225.56;5031673;28;20032;-65
2023/01/31 05:50:02;;;;;;;22.10;10.50;;;;;;;2.36;100.00;102225.34;5031765;28;20025;-65
2023/01/31 05:52:28;;;;;;;22.00;8.85;;;;;;;2.38;100.00;102221.66;5031704;28;20064;-65
2023/01/31 05:54:53;;;;;;;22.63;10.32;;;;;;;2.41;100.00;102228.47;5031543;28;20033;-65
2023/01/31 05:57:18;;;;;;;22.65;10.50;;;;;;;2.43;100.00;102229.22;5031606;28;20034;-65
2023/01/31 05:59:44;;;;;;;25.40;10.00;;;;;;;2.45;100.00;102223.84;5031520;28;20029;-65
2023/01/31 06:02:12;;;;;;;27.75;10.57;;;;;;;2.47;100.00;102228.06;5031366;28;20182;-65
2023/01/31 06:04:37;;;;;;;22.50;10.52;;;;;;;2.48;100.00;102229.72;5031429;28;20484;-65
2023/01/31 06:07:03;;;;;;;23.05;8.85;;;;;;;2.49;100.00;102230.56;5031247;28;20029;-65
2023/01/31 06:09:28;;;;;;;21.38;8.85;;;;;;;2.51;100.00;102232.13;5031492;28;20487;-65
2023/01/31 06:11:53;;;;;;;28.00;11.60;;;;;;;2.52;100.00;102233.00;5031308;28;20499;-65
2023/01/31 06:14:19;;;;;;;37.30;11.80;;;;;;;2.55;100.00;102223.06;5031236;28;20025;-65
2023/01/31 06:16:44;;;;;;;30.90;10.15;;;;;;;2.57;100.00;102229.09;5031233;28;20124;-65
2023/01/31 06:19:09;;;;;;;22.30;9.77;;;;;;;2.52;100.00;102215.41;5031277;28;20029;-65
2023/01/31 06:21:35;;;;;;;20.83;8.45;;;;;;;2.58;100.00;102228.13;5031138;28;20064;-65
2023/01/31 06:24:01;;;;;;;20.92;8.65;;;;;;;2.58;100.00;102224.66;5031064;28;20075;-65
2023/01/31 06:26:26;;;;;;;19.45;9.20;;;;;;;2.60;100.00;102228.84;5031005;28;20036;-65
2023/01/31 06:28:51;;;;;;;24.58;10.05;;;;;;;2.58;100.00;102228.13;5031343;28;20061;-65
2023/01/31 06:31:17;;;;;;;19.52;7.15;;;;;;;2.61;100.00;102229.69;5031034;28;20029;-65
2023/01/31 06:33:42;;;;;;;21.27;9.25;;;;;;;2.63;100.00;102222.53;5030935;28;20026;-65
2023/01/31 06:36:08;;;;;;;28.25;10.45;;;;;;;2.64;100.00;102219.75;5030162;28;20400;-65
2023/01/31 06:38:33;;;;;;;23.02;9.18;;;;;;;2.66;100.00;102218.84;5030897;28;20432;-65
2023/01/31 06:40:58;;;;;;;24.38;9.68;;;;;;;2.67;100.00;102226.59;5030855;28;20040;-70
2023/01/31 06:43:24;;;;;;;17.60;7.47;;;;;;;2.68;100.00;102224.84;5030625;28;20040;-69
2023/01/31 06:45:49;;;;;;;19.20;9.00;;;;;;;2.67;100.00;102216.06;5030703;28;20144;-69
2023/01/31 06:48:15;;;;;;;26.25;8.98;;;;;;;2.68;100.00;102212.50;5030470;28;20029;-69
2023/01/31 06:50:41;;;;;;;24.85;9.27;;;;;;;2.69;100.00;102205.44;5030543;28;20473;-69
2023/01/31 06:53:06;;;;;;;21.23;8.02;;;;;;;2.69;100.00;102193.09;5030541;28;20056;-69
2023/01/31 06:55:32;;;;;;;23.58;9.32;;;;;;;2.70;100.00;102202.69;5030358;28;20095;-69
2023/01/31 06:57:57;;;;;;;23.23;8.20;;;;;;;2.73;100.00;102207.75;5030412;28;20041;-69
2023/01/31 07:00:25;;;;;;;19.42;7.65;;;;;;;2.72;100.00;102205.19;5030434;28;20361;-69
2023/01/31 07:02:51;;;;;;;17.65;6.28;;;;;;;2.78;100.00;102218.78;5030346;28;20033;-69
2023/01/31 07:05:17;;;;;;;18.17;7.53;;;;;;;2.84;100.00;102212.22;5030291;28;20044;-69
2023/01/31 07:07:42;;;;;;;21.10;8.05;;;;;;;2.85;100.00;102196.28;5012552;28;20032;-69
2023/01/31 07:10:09;;;;;;;25.90;9.57;;;;;;;2.88;100.00;102192.59;5030191;28;20030;-69
2023/01/31 07:12:34;;;;;;;19.50;7.53;;;;;;;2.88;100.00;102192.59;5030062;28;20088;-69
2023/01/31 07:15:00;;;;;;;27.45;7.80;;;;;;;2.88;100.00;102182.03;5030141;28;20029;-70
2023/01/31 07:17:25;;;;;;;17.92;7.43;;;;;;;2.90;100.00;102195.94;5030015;28;20037;-69
2023/01/31 07:19:50;;;;;;;19.92;8.27;;;;;;;2.91;100.00;102186.25;5029903;28;20025;-69
2023/01/31 07:22:16;;;;;;;21.30;8.32;;;;;;;2.93;100.00;102184.34;5029898;28;20076;-69
2023/01/31 07:24:41;;;;;;;21.52;8.80;;;;;;;2.94;100.00;102175.50;5030025;28;20484;-69
2023/01/31 07:27:07;;;;;;;19.70;6.63;;;;;;;2.95;100.00;102178.00;5029867;28;20033;-69
2023/01/31 07:29:32;;;;;;;15.10;6.95;;;;;;;2.99;100.00;102162.81;5029900;28;20064;-69
2023/01/31 07:31:57;;;;;;;21.15;6.40;;;;;;;2.98;100.00;102164.59;5029415;28;20041;-70
2023/01/31 07:34:23;;;;;;;18.70;7.30;;;;;;;3.00;100.00;102167.97;5029753;28;20030;-70
2023/01/31 07:36:49;;;;;;;17.52;7.38;;;;;;;3.02;100.00;102167.88;5029685;28;20060;-70
2023/01/31 07:39:14;;;;;;;18.92;8.15;;;;;;;3.05;100.00;102167.63;5029483;28;20038;-70
2023/01/31 07:41:40;;;;;;;20.08;7.47;;;;;;;3.11;100.00;102171.59;5029581;28;20036;-70
2023/01/31 07:44:07;;;;;;;21.55;8.10;;;;;;;3.17;100.00;102176.41;5029342;28;20132;-70
2023/01/31 07:46:33;;;;;;;17.50;7.15;;;;;;;3.22;100.00;102159.31;5029227;28;20408;-71
2023/01/31 07:48:59;;;;;;;18.88;7.32;;;;;;;3.27;100.00;102166.84;5028642;28;20025;-70
2023/01/31 07:51:25;;;;;;;20.38;5.60;;;;;;;3.29;100.00;102162.28;5029457;28;20036;-69
2023/01/31 07:53:50;;;;;;;18.10;7.10;;;;;;;3.33;100.00;102150.56;5029541;28;20488;-69
2023/01/31 07:56:20;;;;;;;18.98;6.38;;;;;;;3.37;100.00;102145.88;5029217;28;20045;-69
2023/01/31 07:58:47;;;;;;;27.83;8.68;;;;;;;3.38;100.00;102150.19;5029360;28;20025;-69
2023/01/31 08:04:03;;;;;;;19.17;6.80;;;;;;;3.46;100.00;102146.03;5029718;28;20384;-69
2023/01/31 08:06:30;;;;;;;19.10;7.72;;;;;;;3.50;100.00;102150.09;5029327;28;20033;-67
2023/01/31 08:08:56;;;;;;;17.23;6.95;;;;;;;3.55;100.00;102143.63;5029153;28;20036;-67
2023/01/31 08:11:21;;;;;;;15.80;5.75;;;;;;;3.61;100.00;102143.16;5029456;28;20029;-68
2023/01/31 08:13:47;;;;;;;11.02;5.72;;;;;;;3.60;100.00;102131.78;5011436;28;20029;-67
2023/01/31 08:16:13;;;;;;;15.43;6.43;;;;;;;3.68;100.00;102132.00;5029083;28;20082;-67
2023/01/31 08:18:38;;;;;;;16.58;7.20;;;;;;;3.73;100.00;102132.50;5029246;28;20029;-67
2023/01/31 08:21:04;;;;;;;16.83;6.57;;;;;;;3.78;100.00;102136.56;5029156;28;20040;-67
2023/01/31 08:23:30;;;;;;;23.50;9.30;;;;;;;3.84;100.00;102130.81;5011561;28;20435;-67
2023/01/31 08:26:04;;;;;;;17.52;7.20;;;;;;;3.87;100.00;102143.75;5029177;28;20104;-68
2023/01/31 08:28:30;;;;;;;27.75;7.13;;;;;;;3.84;100.00;102125.53;5023249;28;20108;-67
2023/01/31 08:30:55;;;;;;;14.68;5.47;;;;;;;3.91;100.00;102126.72;5023348;28;20116;-67
2023/01/31 08:33:21;;;;;;;15.85;6.43;;;;;;;3.91;100.00;102124.94;5023226;28;20029;-67
2023/01/31 08:35:46;;;;;;;14.43;6.50;;;;;;;3.92;100.00;102123.13;5023395;28;20026;-67
2023/01/31 08:38:12;;;;;;;24.95;7.15;;;;;;;3.98;100.00;102119.16;5023558;28;20065;-68
2023/01/31 08:40:37;;;;;;;18.58;6.25;;;;;;;4.02;100.00;102120.59;5023723;28;20123;-67
2023/01/31 08:43:02;;;;;;;20.77;6.20;;;;;;;4.05;100.00;102117.72;5023278;28;20041;-68
2023/01/31 08:45:29;;;;;;;17.13;5.85;;;;;;;4.06;100.00;102120.22;5023414;28;20053;-71
2023/01/31 08:47:56;;;;;;;17.15;5.70;;;;;;;4.08;100.00;102118.28;5023262;28;20022;-66
2023/01/31 08:50:23;;;;;;;18.77;6.05;;;;;;;4.12;100.00;102113.63;5023711;28;20037;-66
2023/01/31 08:52:56;;;;;;;15.43;6.70;;;;;;;4.14;100.00;102107.25;5023652;28;20561;-67
2023/01/31 08:55:23;;;;;;;16.50;6.10;;;;;;;4.17;100.00;102093.81;5023319;28;20444;-67
2023/01/31 08:57:49;;;;;;;19.02;6.05;;;;;;;4.23;100.00;102099.56;5023302;28;20478;-67
2023/01/31 09:00:16;;;;;;;14.30;6.30;;;;;;;4.27;100.00;102095.69;5026173;28;20025;-67
2023/01/31 09:02:41;;;;;;;14.52;4.88;;;;;;;4.36;100.00;102092.31;5027277;28;20034;-67
2023/01/31 09:05:07;;;;;;;14.40;5.43;;;;;;;4.44;100.00;102089.88;5029033;28;20034;-67
2023/01/31 09:07:35;;;;;;;19.90;6.13;;;;;;;4.54;100.00;102092.59;5032556;28;20105;-67
2023/01/31 09:10:01;;;;;;;15.20;5.60;;;;;;;4.59;100.00;102093.06;5032276;28;20025;-67
2023/01/31 09:12:26;;;;;;;18.65;6.03;;;;;;;4.62;100.00;102095.44;5032355;28;20440;-67
2023/01/31 09:14:51;;;;;;;14.35;4.95;;;;;;;4.64;100.00;102087.38;5032486;28;20041;-67
2023/01/31 09:17:17;;;;;;;18.67;6.65;;;;;;;4.62;100.00;102084.88;5032202;28;20029;-67
2023/01/31 09:19:43;;;;;;;12.95;5.72;;;;;;;4.64;100.00;102080.31;5032277;28;20121;-67
2023/01/31 09:22:09;;;;;;;16.45;5.22;;;;;;;4.70;100.00;102077.16;5032102;28;20040;-67
2023/01/31 09:24:35;;;;;;;13.73;6.20;;;;;;;4.80;100.00;102066.66;5032112;28;20029;-67
2023/01/31 09:27:00;;;;;;;19.48;5.63;;;;;;;4.89;100.00;102055.28;5031966;28;20025;-67
2023/01/31 09:29:27;;;;;;;15.65;4.88;;;;;;;5.05;100.00;102060.94;5032010;28;20117;-67
2023/01/31 09:31:53;;;;;;;14.95;5.18;;;;;;;5.21;100.00;102067.56;5032055;28;20037;-67
2023/01/31 09:34:19;;;;;;;14.80;4.45;;;;;;;5.33;100.00;102071.00;5031212;28;20092;-67
2023/01/31 09:36:44;;;;;;;17.80;6.30;;;;;;;5.40;100.00;102069.50;5024694;28;20029;-67
2023/01/31 09:39:11;;;;;;;15.52;5.68;;;;;;;5.41;100.00;102069.34;5026750;28;20029;-67
2023/01/31 09:41:48;;;;;;;10.50;4.53;;;;;;;5.46;100.00;102068.97;5026283;28;20423;-67
2023/01/31 09:44:20;;;;;;;11.60;4.22;;;;;;;5.43;100.00;102058.66;5027650;28;20049;-67
2023/01/31 09:47:08;;;;;;;12.50;4.65;;;;;;;5.47;100.00;102058.22;5030188;28;20045;-66
2023/01/31 09:49:45;;;;;;;19.65;4.90;;;;;;;5.47;100.00;102050.28;5031756;28;20564;-66
2023/01/31 09:52:11;;;;;;;14.88;4.22;;;;;;;5.50;100.00;102067.72;5031724;28;20025;-66
2023/01/31 09:54:39;;;;;;;12.70;4.43;;;;;;;5.51;100.00;102071.22;5031826;28;20030;-66
2023/01/31 09:57:33;;;;;;;13.82;5.13;;;;;;;5.56;100.00;102069.84;5031555;28;20029;-66
2023/01/31 10:00:05;;;;;;;12.85;5.20;;;;;;;5.60;100.00;102052.69;5031631;28;20109;-66
2023/01/31 10:02:46;;;;;;;16.20;4.85;;;;;;;5.59;100.00;102066.09;5031403;28;20960;-66
2023/01/31 10:05:38;;;;;;;14.43;5.68;;;;;;;5.59;100.00;102066.91;5031502;28;20499;-66
2023/01/31 10:08:30;;;;;;;19.15;6.35;;;;;;;5.60;100.00;102052.69;5013518;28;20029;-66
2023/01/31 10:11:05;;;;;;;22.35;6.93;;;;;;;5.64;100.00;102061.22;5025501;28;20500;-66
2023/01/31 10:13:35;;;;;;;14.20;5.68;;;;;;;5.69;100.00;102070.44;5031555;28;20025;-66
2023/01/31 10:16:26;;;;;;;19.80;6.20;;;;;;;5.82;100.00;102064.91;5031248;28;20049;-67
2023/01/31 10:19:15;;;;;;;13.50;5.30;;;;;;;5.95;100.00;102046.16;5031126;28;20056;-66
2023/01/31 10:22:04;;;;;;;15.27;5.43;;;;;;;6.08;100.00;102052.03;5031091;28;20537;-64
2023/01/31 10:24:45;;;;;;;20.27;6.80;;;;;;;6.02;100.00;102055.19;5030896;28;20025;-63
2023/01/31 10:27:33;;;;;;;16.08;5.93;;;;;;;5.92;100.00;102044.59;5030936;28;20026;-63
2023/01/31 10:30:02;;;;;;;45.63;7.97;;;;;;;5.78;100.00;102071.44;5030852;28;20044;-63
2023/01/31 10:32:38;;;;;;;17.85;6.47;;;;;;;5.66;100.00;102057.47;5030846;28;20025;-63
2023/01/31 10:35:15;;;;;;;15.50;6.72;;;;;;;5.62;100.00;102058.72;5030985;28;20034;-63
2023/01/31 10:37:46;;;;;;;22.55;9.32;;;;;;;5.60;100.00;102062.47;5012915;28;20017;-63
2023/01/31 10:40:34;;;;;;;18.48;7.13;;;;;;;5.61;100.00;102072.09;5030999;28;20060;-63
2023/01/31 10:43:10;;;;;;;18.67;7.38;;;;;;;5.63;100.00;102049.81;5030736;28;20068;-63
2023/01/31 10:45:37;;;;;;;22.30;9.63;;;;;;;5.70;100.00;102061.50;5030559;28;20041;-63
2023/01/31 10:48:25;;;;;;;27.90;9.68;;;;;;;5.77;100.00;102056.53;5030556;28;20396;-63
2023/01/31 10:51:32;;;;;;;22.50;8.95;;;;;;;5.86;100.00;102065.47;5030526;28;20041;-63
2023/01/31 10:54:11;;;;;;;18.85;8.00;;;;;;;5.92;100.00;102043.72;5030499;28;20025;-63
2023/01/31 10:56:41;;;;;;;21.25;10.02;;;;;;;5.99;100.00;102042.25;5030260;28;20067;-63
2023/01/31 10:59:17;;;;;;;18.63;8.57;;;;;;;6.05;100.00;102035.56;5030193;28;20025;-64
2023/01/31 11:01:43;;;;;;;26.05;10.93;;;;;;;6.12;100.00;102050.75;5030322;28;20060;-64
2023/01/31 11:04:21;;;;;;;19.45;8.23;;;;;;;6.16;100.00;102032.81;5030457;28;20112;-64
2023/01/31 11:06:46;;;;;;;19.65;8.23;;;;;;;6.19;100.00;102032.53;5030368;28;20092;-64
2023/01/31 11:09:13;;;;;;;28.13;10.45;;;;;;;6.24;100.00;102034.75;5030201;28;20033;-64
2023/01/31 11:11:53;;;;;;;25.70;11.85;;;;;;;6.27;100.00;102027.34;5030386;28;20401;-63
2023/01/31 11:14:19;;;;;;;20.98;11.80;;;;;;;6.35;100.00;102032.78;5030340;28;20093;-64
2023/01/31 11:16:45;;;;;;;22.88;11.63;;;;;;;6.41;100.00;102014.66;5030059;28;20037;-64
2023/01/31 11:19:28;;;;;;;22.83;10.85;;;;;;;6.44;100.00;102015.22;5029979;28;20037;-64
2023/01/31 11:21:54;;;;;;;27.55;11.55;;;;;;;6.48;100.00;102011.31;5030005;28;20384;-64
2023/01/31 11:24:23;;;;;;;24.48;11.15;;;;;;;6.56;100.00;102005.31;5029850;28;20064;-64
2023/01/31 11:27:01;;;;;;;22.85;9.55;;;;;;;6.59;100.00;101999.72;5030262;28;20461;-64
2023/01/31 11:29:46;;;;;;;23.95;10.38;;;;;;;6.54;100.00;101994.00;5029881;28;20026;-64
2023/01/31 11:32:27;;;;;;;19.35;10.27;;;;;;;6.51;100.00;102008.38;5029885;28;20041;-64
2023/01/31 11:35:18;;;;;;;21.20;11.57;;;;;;;6.50;100.00;102008.53;5029999;28;20388;-64
2023/01/31 11:37:59;;;;;;;21.90;10.07;;;;;;;6.45;100.00;101995.69;5006487;28;20327;-64
2023/01/31 11:40:29;;;;;;;22.92;10.00;;;;;;;6.42;100.00;101998.63;5029677;28;20380;-64